Time;durP1;ratioP1;P1;durP2;ratioP2;P2;SDS_P1;SDS_P2;PMS_P1;PMS_P2;Temp;Humidity;BMP_temperature;BMP_pressure;BME280_temperature;BME280_humidity;BME280_pressure;Samples;Min_cycle;Max_cycle;Signal;HPM_P1;HPM_P2
2021/01/10 00:00:35;;;;;;;38.00;21.03;;;2.70;98.30;;;;;;5093496;28;20477;-74
2021/01/10 00:03:01;;;;;;;50.97;23.63;;;2.70;98.30;;;;;;5093625;28;20464;-74
2021/01/10 00:05:30;;;;;;;41.70;21.97;;;2.70;98.30;;;;;;5093268;28;20832;-74
2021/01/10 00:07:58;;;;;;;41.37;21.90;;;2.70;98.30;;;;;;5093539;28;20449;-74
2021/01/10 00:10:25;;;;;;;51.40;23.77;;;2.70;98.40;;;;;;5093301;28;20481;-74
2021/01/10 00:12:55;;;;;;;46.77;24.30;;;2.70;98.30;;;;;;5093412;28;20885;-74
2021/01/10 00:15:21;;;;;;;35.00;22.10;;;2.80;98.40;;;;;;5093868;28;20417;-74
2021/01/10 00:17:48;;;;;;;38.57;21.53;;;2.80;98.30;;;;;;5093552;28;20875;-74
2021/01/10 00:20:15;;;;;;;33.30;21.10;;;2.80;98.60;;;;;;5093890;28;20468;-74
2021/01/10 00:22:41;;;;;;;44.70;22.53;;;2.80;98.10;;;;;;5093581;28;20466;-74
2021/01/10 00:25:10;;;;;;;41.17;23.43;;;2.80;98.10;;;;;;5093450;28;20841;-74
2021/01/10 00:27:37;;;;;;;34.23;21.27;;;2.80;98.10;;;;;;5093391;28;20445;-74
2021/01/10 00:30:07;;;;;;;35.33;22.90;;;2.80;98.00;;;;;;5096291;28;20465;-74
2021/01/10 00:32:33;;;;;;;32.33;21.93;;;2.80;97.70;;;;;;5097392;28;20465;-74
2021/01/10 00:35:00;;;;;;;37.20;21.03;;;2.90;97.80;;;;;;5097431;28;20426;-74
2021/01/10 00:37:26;;;;;;;37.97;21.87;;;2.90;97.90;;;;;;5097183;28;20419;-74
2021/01/10 00:39:52;;;;;;;37.23;21.47;;;2.90;97.80;;;;;;5097349;28;20527;-74
2021/01/10 00:42:19;;;;;;;32.13;21.33;;;2.90;97.80;;;;;;5097295;28;20442;-74
2021/01/10 00:44:46;;;;;;;39.13;21.57;;;2.90;97.70;;;;;;5097283;28;20482;-74
2021/01/10 00:47:16;;;;;;;35.57;21.70;;;2.90;97.60;;;;;;5096944;28;20431;-74
2021/01/10 00:49:43;;;;;;;36.93;20.43;;;2.90;97.50;;;;;;5096783;28;20975;-74
2021/01/10 00:52:09;;;;;;;35.83;20.10;;;2.90;97.40;;;;;;5096968;28;20478;-74
2021/01/10 00:54:35;;;;;;;44.20;21.63;;;2.90;97.40;;;;;;5097058;28;20450;-74
2021/01/10 00:57:02;;;;;;;37.17;20.50;;;2.80;97.30;;;;;;5096982;28;20457;-74
2021/01/10 00:59:28;;;;;;;37.33;20.30;;;2.70;97.30;;;;;;5096853;28;20441;-75
2021/01/10 01:01:54;;;;;;;34.30;20.53;;;2.70;97.50;;;;;;5096563;28;20848;-75
2021/01/10 01:04:22;;;;;;;37.77;20.70;;;2.80;97.60;;;;;;5096460;28;20454;-75
2021/01/10 01:06:48;;;;;;;33.17;20.90;;;2.80;97.60;;;;;;5096478;28;20793;-75
2021/01/10 01:09:15;;;;;;;35.63;18.97;;;2.90;97.40;;;;;;5096740;28;20453;-75
2021/01/10 01:11:41;;;;;;;31.60;19.67;;;2.80;97.40;;;;;;5096276;28;20988;-75
2021/01/10 01:14:09;;;;;;;30.73;19.07;;;2.70;97.40;;;;;;5096630;28;20450;-75
2021/01/10 01:16:36;;;;;;;29.60;20.53;;;2.80;97.40;;;;;;5096617;28;20450;-75
2021/01/10 01:19:03;;;;;;;31.60;19.40;;;2.80;97.40;;;;;;5096267;28;20975;-75
2021/01/10 01:21:30;;;;;;;31.07;19.10;;;2.80;97.30;;;;;;5096403;28;20531;-75
2021/01/10 01:23:56;;;;;;;33.80;20.13;;;2.80;97.40;;;;;;5096277;28;20909;-75
2021/01/10 01:26:24;;;;;;;27.37;17.97;;;2.80;97.30;;;;;;5096118;28;20977;-75
2021/01/10 01:28:51;;;;;;;28.07;18.87;;;2.80;97.20;;;;;;5096405;28;20451;-75
2021/01/10 01:31:19;;;;;;;28.87;18.63;;;2.80;97.20;;;;;;5095879;28;21057;-75
2021/01/10 01:33:46;;;;;;;29.07;18.37;;;2.80;97.20;;;;;;5096297;28;20503;-75
2021/01/10 01:36:14;;;;;;;27.70;19.00;;;2.80;97.10;;;;;;5096320;28;20450;-75
2021/01/10 01:38:42;;;;;;;27.93;20.23;;;2.90;97.10;;;;;;5096185;28;20457;-75
2021/01/10 01:41:08;;;;;;;27.53;18.23;;;2.90;97.00;;;;;;5095511;28;20468;-75
2021/01/10 01:43:35;;;;;;;26.53;18.53;;;2.90;97.00;;;;;;5096113;28;20521;-75
2021/01/10 01:46:02;;;;;;;27.80;18.93;;;3.00;97.10;;;;;;5095774;28;20511;-75
2021/01/10 01:48:28;;;;;;;26.60;18.20;;;3.10;97.00;;;;;;5096022;28;20589;-75
2021/01/10 01:50:57;;;;;;;31.10;19.87;;;3.10;96.80;;;;;;5095566;28;20484;-75
2021/01/10 01:53:23;;;;;;;31.23;20.37;;;3.10;96.70;;;;;;5095968;28;20449;-75
2021/01/10 01:55:52;;;;;;;29.50;19.17;;;3.10;96.60;;;;;;5095839;28;20449;-75
2021/01/10 01:58:19;;;;;;;31.67;18.93;;;3.20;96.40;;;;;;5095499;28;20458;-75
2021/01/10 02:00:45;;;;;;;29.80;19.27;;;3.10;96.20;;;;;;5095664;28;20464;-75
2021/01/10 02:03:14;;;;;;;24.97;18.20;;;3.20;96.30;;;;;;5095726;28;20448;-75
2021/01/10 02:05:40;;;;;;;30.37;18.30;;;3.20;96.20;;;;;;5095737;28;20504;-75
2021/01/10 02:08:10;;;;;;;28.47;17.80;;;3.20;96.10;;;;;;5095638;28;20443;-75
2021/01/10 02:10:40;;;;;;;27.10;18.33;;;3.20;96.10;;;;;;5095442;28;20470;-75
2021/01/10 02:13:12;;;;;;;25.63;17.57;;;3.20;96.10;;;;;;5095889;28;20448;-75
2021/01/10 02:15:40;;;;;;;28.60;19.50;;;3.20;96.10;;;;;;5095572;28;20435;-75
2021/01/10 02:18:09;;;;;;;29.90;20.30;;;3.20;96.10;;;;;;5095471;28;20448;-75
2021/01/10 02:20:37;;;;;;;29.97;19.03;;;3.20;96.10;;;;;;5095603;28;20481;-75
2021/01/10 02:23:06;;;;;;;25.60;16.80;;;3.20;96.00;;;;;;5095116;28;20448;-75
2021/01/10 02:25:35;;;;;;;31.30;19.67;;;3.10;95.90;;;;;;5095021;28;20447;-75
2021/01/10 02:28:03;;;;;;;29.37;18.67;;;3.10;95.90;;;;;;5094956;28;20547;-75
2021/01/10 02:30:32;;;;;;;30.73;17.70;;;3.10;95.90;;;;;;5094775;28;21008;-75
2021/01/10 02:33:03;;;;;;;28.97;18.03;;;3.10;96.00;;;;;;5095162;28;20479;-75
2021/01/10 02:35:31;;;;;;;29.67;18.53;;;3.10;96.00;;;;;;5095120;28;20432;-75
2021/01/10 02:38:22;;;;;;;27.40;17.67;;;3.10;96.00;;;;;;5095016;28;20837;-75
2021/01/10 02:41:00;;;;;;;27.63;18.10;;;3.10;96.00;;;;;;5094976;28;20466;-75
2021/01/10 02:43:28;;;;;;;29.40;19.83;;;3.10;96.00;;;;;;5094648;28;20935;-75
2021/01/10 02:45:58;;;;;;;27.57;18.67;;;3.10;96.00;;;;;;5095031;28;20439;-75
2021/01/10 02:48:24;;;;;;;31.23;19.23;;;3.10;95.90;;;;;;5094950;28;20481;-75
2021/01/10 02:50:51;;;;;;;29.83;19.40;;;3.00;96.00;;;;;;5094139;28;20810;-75
2021/01/10 02:53:17;;;;;;;30.53;20.00;;;3.10;96.10;;;;;;5094503;28;20457;-75
2021/01/10 02:55:43;;;;;;;35.67;21.67;;;3.10;96.10;;;;;;5094703;28;20458;-75
2021/01/10 02:58:19;;;;;;;31.67;21.33;;;3.10;96.10;;;;;;5094364;28;20820;-75
2021/01/10 03:00:47;;;;;;;29.33;19.33;;;3.10;96.10;;;;;;5094314;28;20469;-75
2021/01/10 03:03:14;;;;;;;30.67;20.53;;;3.00;96.00;;;;;;5094688;28;20808;-75
2021/01/10 03:05:40;;;;;;;37.70;20.30;;;3.00;96.00;;;;;;5094280;28;20470;-75
2021/01/10 03:08:07;;;;;;;28.33;19.30;;;3.00;96.10;;;;;;5094246;28;20948;-75
2021/01/10 03:10:34;;;;;;;23.80;17.40;;;3.00;96.00;;;;;;5094509;28;20462;-75
2021/01/10 03:13:00;;;;;;;28.80;19.33;;;3.00;96.10;;;;;;5094417;28;20431;-75
2021/01/10 03:15:29;;;;;;;32.07;20.57;;;3.10;96.00;;;;;;5094052;28;20951;-75
2021/01/10 03:17:57;;;;;;;30.77;19.17;;;3.10;96.00;;;;;;5094386;28;20439;-75
2021/01/10 03:20:23;;;;;;;24.83;17.47;;;3.10;95.70;;;;;;5094153;28;20457;-75
2021/01/10 03:22:50;;;;;;;29.10;19.53;;;3.00;95.60;;;;;;5093954;28;20446;-75
2021/01/10 03:25:18;;;;;;;26.90;18.43;;;3.00;95.50;;;;;;5094244;28;20444;-75
2021/01/10 03:27:44;;;;;;;28.33;18.87;;;3.00;95.30;;;;;;5093890;28;20950;-75
2021/01/10 03:30:15;;;;;;;31.50;19.87;;;3.00;95.30;;;;;;5094125;28;20523;-75
2021/01/10 03:32:43;;;;;;;29.23;17.60;;;2.90;95.30;;;;;;5094154;28;20475;-75
2021/01/10 03:35:12;;;;;;;31.73;19.63;;;2.90;95.30;;;;;;5094023;28;20458;-75
2021/01/10 03:37:39;;;;;;;29.47;20.53;;;2.80;95.20;;;;;;5094054;28;20436;-75
2021/01/10 03:40:07;;;;;;;29.70;20.40;;;2.80;95.30;;;;;;5093555;28;20488;-75
2021/01/10 03:42:33;;;;;;;35.27;21.07;;;2.80;95.20;;;;;;5093966;28;20486;-75
2021/01/10 03:45:00;;;;;;;34.97;23.70;;;2.80;95.30;;;;;;5093906;28;20445;-75
2021/01/10 03:47:26;;;;;;;35.17;23.57;;;2.80;95.50;;;;;;5093830;28;20454;-75
2021/01/10 03:49:53;;;;;;;34.37;21.37;;;2.90;95.70;;;;;;5093741;28;20465;-75
2021/01/10 03:52:19;;;;;;;34.20;22.50;;;2.80;95.60;;;;;;5093406;28;20984;-75
2021/01/10 03:54:45;;;;;;;41.67;23.63;;;2.80;95.50;;;;;;5093762;28;20444;-75
2021/01/10 03:57:11;;;;;;;39.93;25.37;;;2.80;95.30;;;;;;5093396;28;20952;-75
2021/01/10 03:59:38;;;;;;;37.60;24.80;;;2.80;95.20;;;;;;5093229;28;20876;-75
2021/01/10 04:02:04;;;;;;;38.67;24.80;;;2.80;95.10;;;;;;5093521;28;20450;-75
2021/01/10 04:04:30;;;;;;;42.80;26.47;;;2.70;95.00;;;;;;5093224;28;20451;-75
2021/01/10 04:06:57;;;;;;;45.00;27.13;;;2.70;95.00;;;;;;5093652;28;20444;-75
2021/01/10 04:09:23;;;;;;;47.97;25.83;;;2.70;95.10;;;;;;5093476;28;20455;-75
2021/01/10 04:11:49;;;;;;;42.77;26.70;;;2.60;95.10;;;;;;5093149;28;21023;-75
2021/01/10 04:14:16;;;;;;;50.30;28.30;;;2.50;95.20;;;;;;5093529;28;20440;-75
2021/01/10 04:16:42;;;;;;;45.17;28.83;;;2.50;95.20;;;;;;5093507;28;20462;-75
2021/01/10 04:19:08;;;;;;;48.33;27.10;;;2.40;95.20;;;;;;5093554;28;20440;-75
2021/01/10 04:21:36;;;;;;;68.27;29.20;;;2.40;95.30;;;;;;5093464;28;20464;-75
2021/01/10 04:24:04;;;;;;;76.60;28.37;;;2.30;95.30;;;;;;5093189;28;20449;-75
2021/01/10 04:26:33;;;;;;;108.77;30.33;;;2.30;95.50;;;;;;5093139;28;20948;-75
2021/01/10 04:28:59;;;;;;;133.20;28.73;;;2.20;95.60;;;;;;5093413;28;20445;-75
2021/01/10 04:31:25;;;;;;;89.60;27.87;;;2.20;95.80;;;;;;5093236;28;20483;-75
2021/01/10 04:33:51;;;;;;;61.63;26.13;;;2.20;95.90;;;;;;5093030;28;20845;-75
2021/01/10 04:36:18;;;;;;;97.53;27.63;;;2.20;96.00;;;;;;5093416;28;20442;-75
2021/01/10 04:38:44;;;;;;;218.13;28.10;;;2.30;96.10;;;;;;5093419;28;20452;-75
2021/01/10 04:41:12;;;;;;;140.57;24.27;;;2.20;96.10;;;;;;5093212;28;20867;-75
2021/01/10 04:43:39;;;;;;;186.57;26.63;;;2.20;96.20;;;;;;5093248;28;20449;-75
2021/01/10 04:46:05;;;;;;;169.67;26.97;;;2.20;96.30;;;;;;5093303;28;20455;-75
2021/01/10 04:48:32;;;;;;;284.27;29.80;;;2.30;96.40;;;;;;5093299;28;20445;-75
2021/01/10 04:50:59;;;;;;;191.57;25.07;;;2.30;96.40;;;;;;5092784;28;20582;-75
2021/01/10 04:53:27;;;;;;;182.33;25.30;;;2.30;96.40;;;;;;5093189;28;20449;-75
2021/01/10 04:55:58;;;;;;;112.13;22.60;;;2.20;96.10;;;;;;5093137;28;20442;-75
2021/01/10 04:58:28;;;;;;;171.33;22.57;;;2.20;96.20;;;;;;5093163;28;20426;-75
2021/01/10 05:00:56;;;;;;;111.47;23.23;;;2.30;96.50;;;;;;5093144;28;20492;-75
2021/01/10 05:03:25;;;;;;;136.70;22.87;;;2.30;96.50;;;;;;5092579;28;20953;-75
2021/01/10 05:05:51;;;;;;;71.13;20.30;;;2.30;96.60;;;;;;5092761;28;20923;-75
2021/01/10 05:08:17;;;;;;;59.57;22.00;;;2.40;96.60;;;;;;5093124;28;20447;-75
2021/01/10 05:10:44;;;;;;;163.47;23.03;;;2.50;96.70;;;;;;5093007;28;20470;-75
2021/01/10 05:13:10;;;;;;;111.87;21.50;;;2.50;96.50;;;;;;5092949;28;20489;-75
2021/01/10 05:15:38;;;;;;;159.80;24.03;;;2.50;96.30;;;;;;5095346;28;20820;-75
2021/01/10 05:18:05;;;;;;;85.30;19.80;;;2.50;96.20;;;;;;5096591;28;20505;-75
2021/01/10 05:20:32;;;;;;;145.30;22.60;;;2.60;96.10;;;;;;5096522;28;20536;-75
2021/01/10 05:22:58;;;;;;;158.43;20.90;;;2.60;95.90;;;;;;5096251;28;20440;-75
2021/01/10 05:25:26;;;;;;;42.53;17.63;;;2.50;95.90;;;;;;5096533;28;20449;-75
2021/01/10 05:27:53;;;;;;;50.63;18.00;;;2.60;96.10;;;;;;5096174;28;20477;-75
2021/01/10 05:30:26;;;;;;;56.63;18.30;;;2.70;96.10;;;;;;5096411;28;20474;-75
2021/01/10 05:33:01;;;;;;;174.63;24.43;;;2.70;96.00;;;;;;5096313;28;20461;-75
2021/01/10 05:35:27;;;;;;;32.27;16.27;;;2.70;95.70;;;;;;5096346;28;20441;-75
2021/01/10 05:38:01;;;;;;;63.50;20.90;;;2.80;95.80;;;;;;5096314;28;20451;-75
2021/01/10 05:40:31;;;;;;;77.50;21.63;;;2.80;95.70;;;;;;5096147;28;20475;-75
2021/01/10 05:43:06;;;;;;;134.83;21.03;;;2.80;95.60;;;;;;5095858;28;20439;-75
2021/01/10 05:45:34;;;;;;;52.53;19.47;;;2.80;95.60;;;;;;5096169;28;20827;-75
2021/01/10 05:48:09;;;;;;;42.10;19.60;;;2.80;95.40;;;;;;5096070;28;20449;-75
2021/01/10 05:50:48;;;;;;;107.40;21.27;;;2.80;95.50;;;;;;5095997;28;20546;-75
2021/01/10 05:53:19;;;;;;;43.30;20.13;;;2.80;95.50;;;;;;5095607;28;20515;-75
2021/01/10 05:55:54;;;;;;;56.30;19.93;;;2.80;95.40;;;;;;5095962;28;20801;-75
2021/01/10 05:58:22;;;;;;;66.20;19.20;;;2.80;95.40;;;;;;5095956;28;20491;-75
2021/01/10 06:00:51;;;;;;;54.37;19.20;;;2.80;95.40;;;;;;5095821;28;21006;-75
2021/01/10 06:03:19;;;;;;;69.10;21.07;;;2.80;95.30;;;;;;5095662;28;20452;-75
2021/01/10 06:05:57;;;;;;;67.80;19.70;;;2.80;95.30;;;;;;5095833;28;20423;-75
2021/01/10 06:08:32;;;;;;;31.30;17.50;;;2.80;95.10;;;;;;5095698;28;20450;-75
2021/01/10 06:11:25;;;;;;;27.77;18.50;;;2.80;95.10;;;;;;5095684;28;20464;-75
2021/01/10 06:13:57;;;;;;;32.47;19.00;;;2.80;95.20;;;;;;5095574;28;20798;-75
2021/01/10 06:16:25;;;;;;;39.63;19.20;;;2.80;95.30;;;;;;5095210;28;20917;-75
2021/01/10 06:18:55;;;;;;;31.73;19.83;;;2.80;95.20;;;;;;5095463;28;20447;-75
2021/01/10 06:21:24;;;;;;;34.27;19.00;;;2.80;95.30;;;;;;5095128;28;20461;-75
2021/01/10 06:23:52;;;;;;;51.40;19.73;;;2.80;95.30;;;;;;5095368;28;20448;-75
2021/01/10 06:26:22;;;;;;;42.93;22.00;;;2.80;95.30;;;;;;5095266;28;20441;-75
2021/01/10 06:28:59;;;;;;;33.00;19.90;;;2.80;95.20;;;;;;5095312;28;20435;-75
2021/01/10 06:31:28;;;;;;;34.80;21.30;;;2.80;95.20;;;;;;5095194;28;20512;-75
2021/01/10 06:34:00;;;;;;;31.10;20.07;;;2.80;95.30;;;;;;5095183;28;20450;-75
2021/01/10 06:36:29;;;;;;;30.07;20.80;;;2.80;95.40;;;;;;5095126;28;20460;-75
2021/01/10 06:39:01;;;;;;;32.53;21.07;;;2.80;95.40;;;;;;5095077;28;20503;-75
2021/01/10 06:41:53;;;;;;;33.80;21.60;;;2.80;95.30;;;;;;5095012;28;20816;-75
2021/01/10 06:44:20;;;;;;;37.70;23.17;;;2.90;95.30;;;;;;5094991;28;20434;-75
2021/01/10 06:46:49;;;;;;;30.33;20.30;;;2.80;95.20;;;;;;5094911;28;20504;-75
2021/01/10 06:49:17;;;;;;;30.20;19.40;;;2.80;95.10;;;;;;5095197;28;20474;-75
2021/01/10 06:51:45;;;;;;;35.40;23.60;;;2.80;95.10;;;;;;5094641;28;20486;-75
2021/01/10 06:54:12;;;;;;;33.87;22.80;;;2.80;95.20;;;;;;5094746;28;20456;-75
2021/01/10 06:56:39;;;;;;;29.33;20.50;;;2.90;95.30;;;;;;5094444;28;20793;-75
2021/01/10 06:59:06;;;;;;;37.37;22.20;;;2.90;95.20;;;;;;5094679;28;20438;-75
2021/01/10 07:01:58;;;;;;;34.17;21.80;;;2.90;95.10;;;;;;5094591;28;20459;-75
2021/01/10 07:04:46;;;;;;;35.80;22.67;;;2.90;95.00;;;;;;5094310;28;20458;-75
2021/01/10 07:07:37;;;;;;;31.93;19.40;;;2.90;94.90;;;;;;5094106;28;20455;-75
2021/01/10 07:10:06;;;;;;;33.13;21.63;;;3.00;95.10;;;;;;5094137;28;20973;-75
2021/01/10 07:12:32;;;;;;;28.50;20.80;;;3.00;95.00;;;;;;5094348;28;20843;-75
2021/01/10 07:15:27;;;;;;;31.20;20.23;;;3.00;95.10;;;;;;5094447;28;20442;-75
2021/01/10 07:18:08;;;;;;;30.90;21.50;;;3.10;95.00;;;;;;5094409;28;20457;-75
2021/01/10 07:20:39;;;;;;;33.13;22.00;;;3.00;94.80;;;;;;5093921;28;20470;-75
2021/01/10 07:23:30;;;;;;;32.80;21.60;;;3.00;94.70;;;;;;5094280;28;20470;-75
2021/01/10 07:25:58;;;;;;;36.10;20.00;;;2.90;94.70;;;;;;5094183;28;20450;-75
2021/01/10 07:28:40;;;;;;;30.03;20.50;;;2.80;94.90;;;;;;5093925;28;20445;-75
2021/01/10 07:31:18;;;;;;;31.37;20.33;;;2.90;95.20;;;;;;5094007;28;20464;-75
2021/01/10 07:33:46;;;;;;;29.50;19.93;;;3.00;95.30;;;;;;5094054;28;20462;-75
2021/01/10 07:36:13;;;;;;;32.47;20.43;;;3.10;95.20;;;;;;5094135;28;20510;-75
2021/01/10 07:38:41;;;;;;;28.40;20.73;;;3.10;95.20;;;;;;5093641;28;20794;-75
2021/01/10 07:41:28;;;;;;;28.17;20.90;;;3.20;95.10;;;;;;5093859;28;20516;-75
2021/01/10 07:43:56;;;;;;;34.80;22.07;;;3.20;94.80;;;;;;5093954;28;20456;-75
2021/01/10 07:46:59;;;;;;;40.73;24.67;;;3.20;94.70;;;;;;5093935;28;20454;-75
2021/01/10 07:49:27;;;;;;;28.33;17.87;;;3.20;94.90;;;;;;5093513;28;20431;-75
2021/01/10 07:51:55;;;;;;;31.83;20.87;;;3.10;94.90;;;;;;5093727;28;20482;-75
2021/01/10 07:54:50;;;;;;;37.20;19.60;;;3.20;94.90;;;;;;5093528;28;20431;-75
2021/01/10 07:57:24;;;;;;;38.10;22.93;;;3.30;94.60;;;;;;5093825;28;20454;-75
2021/01/10 08:00:11;;;;;;;32.53;21.17;;;3.30;94.50;;;;;;5093672;28;20490;-75
2021/01/10 08:02:52;;;;;;;31.50;22.50;;;3.30;94.40;;;;;;5093708;28;20447;-75
2021/01/10 08:05:19;;;;;;;31.40;20.70;;;3.30;94.40;;;;;;5093248;28;20836;-75
2021/01/10 08:07:51;;;;;;;31.33;21.30;;;3.30;94.50;;;;;;5093751;28;20455;-75
2021/01/10 08:10:17;;;;;;;30.60;19.90;;;3.20;94.40;;;;;;5093671;28;20464;-75
2021/01/10 08:12:44;;;;;;;31.13;21.67;;;3.30;94.50;;;;;;5093575;28;20544;-75
2021/01/10 08:15:12;;;;;;;33.33;21.63;;;3.30;94.40;;;;;;5094237;28;20512;-75
2021/01/10 08:17:38;;;;;;;30.43;20.97;;;3.30;94.40;;;;;;5093182;28;20458;-75
2021/01/10 08:20:06;;;;;;;30.33;20.50;;;3.30;94.50;;;;;;5093438;28;20475;-75
2021/01/10 08:22:33;;;;;;;34.80;22.17;;;3.40;94.40;;;;;;5093171;28;20959;-75
2021/01/10 08:25:01;;;;;;;29.50;20.63;;;3.50;94.30;;;;;;5093432;28;20436;-75
2021/01/10 08:27:28;;;;;;;31.57;23.30;;;3.60;94.10;;;;;;5093392;28;20454;-75
2021/01/10 08:29:55;;;;;;;33.03;21.40;;;3.60;94.00;;;;;;5093350;28;20460;-75
2021/01/10 08:32:22;;;;;;;28.10;19.20;;;3.50;94.10;;;;;;5093273;28;20513;-75
2021/01/10 08:34:49;;;;;;;35.00;21.63;;;3.50;94.10;;;;;;5093429;28;20446;-75
2021/01/10 08:37:20;;;;;;;29.03;20.23;;;3.50;94.00;;;;;;5093340;28;20563;-74
2021/01/10 08:39:56;;;;;;;32.13;19.93;;;3.60;94.00;;;;;;5092941;28;20940;-74
2021/01/10 08:42:23;;;;;;;36.67;24.10;;;3.70;93.90;;;;;;5093352;28;20459;-75
2021/01/10 08:44:50;;;;;;;31.73;20.80;;;3.70;93.90;;;;;;5093235;28;20472;-75
2021/01/10 08:47:16;;;;;;;32.27;20.60;;;3.70;93.80;;;;;;5093274;28;20814;-75
2021/01/10 08:49:43;;;;;;;26.27;19.20;;;3.80;93.70;;;;;;5093793;28;21027;-75
2021/01/10 08:52:11;;;;;;;27.80;19.57;;;3.80;93.60;;;;;;5096719;28;20815;-74
2021/01/10 08:54:37;;;;;;;32.03;21.37;;;3.90;93.60;;;;;;5097007;28;20452;-74
2021/01/10 08:57:04;;;;;;;29.23;20.73;;;3.90;93.40;;;;;;5097074;28;20435;-74
2021/01/10 08:59:38;;;;;;;36.83;23.00;;;3.90;93.30;;;;;;5097053;28;20416;-74
2021/01/10 09:02:08;;;;;;;33.73;20.70;;;3.90;93.30;;;;;;5096915;28;20445;-77
2021/01/10 09:07:22;;;;;;;35.40;21.87;;;3.80;93.40;;;;;;4822717;22;20602;-71
2021/01/10 09:09:51;;;;;;;28.43;19.00;;;3.90;93.50;;;;;;5076692;28;20823;-69
2021/01/10 09:12:23;;;;;;;29.63;20.70;;;3.90;93.40;;;;;;5076510;28;20838;-70
2021/01/10 09:14:55;;;;;;;28.87;20.90;;;4.00;93.40;;;;;;5076145;28;20428;-70
2021/01/10 09:17:26;;;;;;;31.20;20.50;;;4.00;93.30;;;;;;5076438;28;20436;-70
2021/01/10 09:20:01;;;;;;;37.77;24.33;;;4.10;93.20;;;;;;5076359;28;20763;-70
2021/01/10 09:22:29;;;;;;;36.87;23.00;;;4.20;93.10;;;;;;5076884;28;20420;-70
2021/01/10 09:24:55;;;;;;;38.77;21.80;;;4.20;93.10;;;;;;5076201;28;20444;-69
2021/01/10 09:27:22;;;;;;;27.30;19.57;;;4.20;92.90;;;;;;5076337;28;20497;-71
2021/01/10 09:29:48;;;;;;;26.30;18.30;;;4.20;92.70;;;;;;5076161;28;20471;-70
2021/01/10 09:32:22;;;;;;;27.60;20.70;;;4.30;92.70;;;;;;5076134;28;20479;-70
2021/01/10 09:34:55;;;;;;;34.57;22.27;;;4.30;92.70;;;;;;5076095;28;20440;-70
2021/01/10 09:37:27;;;;;;;31.57;21.90;;;4.40;92.50;;;;;;5076190;28;20463;-70
2021/01/10 09:39:53;;;;;;;35.73;22.83;;;4.40;92.40;;;;;;5075715;28;20945;-70
2021/01/10 09:42:20;;;;;;;31.70;22.10;;;4.30;92.50;;;;;;5075728;28;20428;-70
2021/01/10 09:44:54;;;;;;;33.40;20.57;;;4.40;92.50;;;;;;5075926;28;20433;-70
2021/01/10 09:47:35;;;;;;;34.40;21.77;;;4.40;92.30;;;;;;5075619;28;20910;-70
2021/01/10 09:50:01;;;;;;;37.07;21.53;;;4.40;92.20;;;;;;5075942;28;20456;-70
2021/01/10 09:52:27;;;;;;;29.43;20.00;;;4.40;92.30;;;;;;5075791;28;20893;-70
2021/01/10 09:54:57;;;;;;;32.63;22.50;;;4.50;92.30;;;;;;5075696;28;20445;-69
2021/01/10 09:57:23;;;;;;;34.97;22.90;;;4.60;92.30;;;;;;5075791;28;20448;-70
2021/01/10 10:00:03;;;;;;;39.80;23.50;;;4.60;92.20;;;;;;5075697;28;20498;-70
2021/01/10 10:02:34;;;;;;;36.87;21.63;;;4.60;92.30;;;;;;5075631;28;20441;-70
2021/01/10 10:05:09;;;;;;;34.90;23.90;;;4.60;92.20;;;;;;5075529;28;20465;-69
2021/01/10 10:07:37;;;;;;;43.50;23.67;;;4.60;92.50;;;;;;5075602;28;20477;-69
2021/01/10 10:10:05;;;;;;;32.40;21.27;;;4.60;92.10;;;;;;5075473;28;20475;-69
2021/01/10 10:12:32;;;;;;;34.93;21.20;;;4.70;92.10;;;;;;5075554;28;20468;-69
2021/01/10 10:14:59;;;;;;;41.70;24.40;;;4.70;92.10;;;;;;5076209;28;20444;-69
2021/01/10 10:17:28;;;;;;;36.93;22.07;;;4.80;92.00;;;;;;5075380;28;20444;-69
2021/01/10 10:19:55;;;;;;;35.40;20.73;;;4.90;91.90;;;;;;5075363;28;20433;-70
2021/01/10 10:22:32;;;;;;;35.77;20.63;;;4.90;91.70;;;;;;5075431;28;20449;-70
2021/01/10 10:24:59;;;;;;;36.93;23.83;;;4.90;91.70;;;;;;5075181;28;20486;-70
2021/01/10 10:27:27;;;;;;;35.83;21.93;;;5.00;91.80;;;;;;5075149;28;20451;-70
2021/01/10 10:29:53;;;;;;;38.80;22.40;;;5.00;91.90;;;;;;5075128;28;20456;-70
2021/01/10 10:32:19;;;;;;;31.80;21.50;;;5.00;91.90;;;;;;5074784;28;20464;-70
2021/01/10 10:34:46;;;;;;;31.17;21.33;;;5.10;92.00;;;;;;5075032;28;20814;-70
2021/01/10 10:37:14;;;;;;;33.70;19.40;;;5.10;91.80;;;;;;5074908;28;20440;-70
2021/01/10 10:39:40;;;;;;;33.63;21.53;;;5.20;91.60;;;;;;5074569;28;20976;-70
2021/01/10 10:42:11;;;;;;;31.27;22.67;;;5.30;91.40;;;;;;5074794;28;20449;-70
2021/01/10 10:44:37;;;;;;;32.33;21.83;;;5.30;91.50;;;;;;5074833;28;20429;-69
2021/01/10 10:47:04;;;;;;;28.43;19.33;;;5.40;91.40;;;;;;5074679;28;20472;-69
2021/01/10 10:49:30;;;;;;;33.10;21.43;;;5.40;91.20;;;;;;5074354;28;20906;-69
2021/01/10 10:51:57;;;;;;;33.77;22.10;;;5.50;91.20;;;;;;5074598;28;20559;-69
2021/01/10 10:54:24;;;;;;;28.43;20.07;;;5.50;91.20;;;;;;5074411;28;20926;-70
2021/01/10 10:56:51;;;;;;;28.30;21.53;;;5.60;91.20;;;;;;5074430;28;20461;-69
2021/01/10 10:59:18;;;;;;;38.33;22.43;;;5.60;91.20;;;;;;5074531;28;20476;-69
2021/01/10 11:01:45;;;;;;;34.47;19.80;;;5.70;91.40;;;;;;5074543;28;20421;-69
2021/01/10 11:04:12;;;;;;;35.70;22.00;;;5.70;91.40;;;;;;5074490;28;20825;-69
2021/01/10 11:06:39;;;;;;;23.23;18.07;;;5.80;91.40;;;;;;5074075;28;20808;-69
2021/01/10 11:09:06;;;;;;;33.03;20.40;;;5.80;91.10;;;;;;5074427;28;20433;-69
2021/01/10 11:11:41;;;;;;;33.23;21.10;;;5.90;90.90;;;;;;5073806;28;20868;-70
2021/01/10 11:14:08;;;;;;;32.63;20.77;;;5.90;90.70;;;;;;5073573;28;20439;-69
2021/01/10 11:16:36;;;;;;;30.80;21.10;;;5.90;90.40;;;;;;5074159;28;20821;-69
2021/01/10 11:19:04;;;;;;;28.73;20.77;;;6.00;90.40;;;;;;5074592;28;20428;-69
2021/01/10 11:21:34;;;;;;;29.30;19.80;;;5.90;90.40;;;;;;5074108;28;20429;-69
2021/01/10 11:24:01;;;;;;;29.90;19.90;;;5.90;90.30;;;;;;5074111;28;20848;-69
2021/01/10 11:26:28;;;;;;;35.33;21.80;;;5.90;90.40;;;;;;5073919;28;20469;-69
2021/01/10 11:28:56;;;;;;;29.10;20.63;;;6.00;90.40;;;;;;5074179;28;20429;-69
2021/01/10 11:31:24;;;;;;;39.03;22.13;;;6.00;90.50;;;;;;5073611;28;20448;-69
2021/01/10 11:33:50;;;;;;;30.03;20.57;;;6.00;90.40;;;;;;5073827;28;20461;-70
2021/01/10 11:36:18;;;;;;;31.07;21.10;;;6.00;90.20;;;;;;5073880;28;20526;-69
2021/01/10 11:38:48;;;;;;;37.30;20.93;;;6.10;90.20;;;;;;5073846;28;20428;-69
2021/01/10 11:41:15;;;;;;;29.37;19.93;;;6.10;90.10;;;;;;5074953;28;20440;-70
2021/01/10 11:43:41;;;;;;;35.13;21.40;;;6.10;90.10;;;;;;5073971;28;20902;-70
2021/01/10 11:46:09;;;;;;;36.33;21.43;;;6.20;89.90;;;;;;5073720;28;20469;-70
2021/01/10 11:48:36;;;;;;;29.50;20.10;;;6.10;89.40;;;;;;5073924;28;20942;-70
2021/01/10 11:51:04;;;;;;;40.30;22.83;;;6.20;89.90;;;;;;5073688;28;20439;-70
2021/01/10 11:53:30;;;;;;;32.13;21.53;;;6.10;89.70;;;;;;5073617;28;20464;-70
2021/01/10 11:55:58;;;;;;;36.83;22.00;;;6.20;89.80;;;;;;5073460;28;20530;-69
2021/01/10 11:58:26;;;;;;;33.30;19.90;;;6.20;90.00;;;;;;5073661;28;20429;-69
2021/01/10 12:00:53;;;;;;;33.43;20.00;;;6.40;89.50;;;;;;5072284;28;20551;-69
2021/01/10 12:03:21;;;;;;;30.60;18.23;;;6.50;89.30;;;;;;5073596;28;20425;-70
2021/01/10 12:05:48;;;;;;;30.43;21.03;;;6.60;88.90;;;;;;5073499;28;20480;-69
2021/01/10 12:08:15;;;;;;;29.20;18.70;;;6.80;88.40;;;;;;5073441;28;20452;-69
2021/01/10 12:10:42;;;;;;;30.00;18.80;;;6.90;87.60;;;;;;5073252;28;20464;-69
2021/01/10 12:13:08;;;;;;;29.73;20.83;;;7.00;87.40;;;;;;5073849;28;20487;-69
2021/01/10 12:15:36;;;;;;;31.10;18.27;;;7.30;87.90;;;;;;5073304;28;20870;-70
2021/01/10 12:18:03;;;;;;;26.07;16.27;;;7.60;86.70;;;;;;5073103;28;20934;-70
2021/01/10 12:20:30;;;;;;;29.13;17.00;;;7.80;84.30;;;;;;5073331;28;20429;-70
2021/01/10 12:22:56;;;;;;;31.50;20.77;;;8.00;83.90;;;;;;5073226;28;20788;-70
2021/01/10 12:25:24;;;;;;;26.13;17.67;;;8.10;82.70;;;;;;5077121;28;20496;-70
2021/01/10 12:27:51;;;;;;;28.60;17.33;;;8.40;82.40;;;;;;5077407;28;20476;-69
2021/01/10 12:30:18;;;;;;;33.60;18.10;;;9.00;81.80;;;;;;5077318;28;20459;-69
2021/01/10 12:32:44;;;;;;;26.23;17.30;;;9.60;80.20;;;;;;5077281;28;20487;-70
2021/01/10 12:35:15;;;;;;;22.30;16.73;;;10.10;74.80;;;;;;5077216;28;20843;-70
2021/01/10 12:37:43;;;;;;;25.30;15.20;;;10.20;71.10;;;;;;5077295;28;20441;-70
2021/01/10 12:40:11;;;;;;;26.10;15.43;;;10.30;70.10;;;;;;5077281;28;20428;-70
2021/01/10 12:42:38;;;;;;;24.90;15.13;;;10.40;69.70;;;;;;5076828;28;20440;-70
2021/01/10 12:45:06;;;;;;;27.10;17.17;;;10.50;69.20;;;;;;5077042;28;20475;-70
2021/01/10 12:47:33;;;;;;;19.90;14.20;;;10.70;67.80;;;;;;5077030;28;20814;-70